Accueil
METAR-TAF:

METAR-TAF

Aéroports :

Aéroport de Pontoise - Cormeilles-en-Vexin

Pontoise, France

latitude: 49-05-48N, longitude: 002-02-27E, altitude: 99 m

Observation

Le bulletin a été fait il y a 23 minutes, à 03:00 UTC
Vent calme
Température 14°C
Humidité 88%
Pression 1014 hPa
Visibilité 10 km ou plus
Nuages épars à une hauteur de 4100 ft
Ciel couvert à une hauteur de 8600 ft

METAR: LFPT 020300Z AUTO 00000KT 9999 SCT041 OVC086 14/12 Q1014

Heure: 05:23 (03:23 UTC)


TAF: absent

Observations et prévisions météorologiques de plus de 4000 aéroports (messages METAR et TAF).

Les stations disponibles sont représentées par des disques jaunes et rouges sur la carte.

Passer la souris dessus pour voir le nom de la station.

Cliquer dessus pour voir les observations et prévisions météorologiques.

Pour changer de carte: cliquez sur les boutons verts avec une croix noire pour zoomer, sur le bouton vert avec un tiret pour effectuer un zoom arrière, ou sur les flèches vertes pour les cartes adjacentes.


METAR-TAF: